Time,TemperatureF,DewpointF,PressureIn,WindDirection,WindDirectionDegrees,WindSpeedMPH,WindSpeedGustMPH,Humidity,HourlyPrecipIn,Conditions,Clouds,dailyrainin,SoftwareType,DateUTC
2013-07-19 00:04:00,68.4,68.4,29.88,East,101,0.0,1.3,100,-99.99,,,-99.99,WSDL version 420,2013-07-19 04:04:00,
2013-07-19 00:09:00,68.4,68.4,29.88,WSW,248,0.2,1.3,100,0.00,,,0.00,WSDL version 420,2013-07-19 04:09:00,
2013-07-19 00:14:00,68.4,68.4,29.88,SW,225,0.0,1.3,100,0.00,,,0.00,WSDL version 420,2013-07-19 04:14:00,
2013-07-19 00:19:00,68.4,68.4,29.88,WSW,248,0.4,2.0,100,0.00,,,0.00,WSDL version 420,2013-07-19 04:19:00,
2013-07-19 00:24:00,68.4,68.4,29.88,WSW,248,0.8,2.2,100,0.00,,,0.00,WSDL version 420,2013-07-19 04:24:00,
2013-07-19 00:29:00,68.2,68.2,29.88,SW,228,0.0,2.2,100,-99.99,,,-99.99,WSDL version 420,2013-07-19 04:29:00,
2013-07-19 00:34:00,68.2,68.2,29.88,SW,219,0.0,1.1,100,-99.99,,,-99.99,WSDL version 420,2013-07-19 04:34:00,
2013-07-19 00:39:00,68.0,68.0,29.88,SW,225,0.0,1.1,100,0.00,,,0.00,WSDL version 420,2013-07-19 04:39:00,
2013-07-19 00:44:00,68.0,68.0,29.88,SW,225,0.0,0.0,100,0.00,,,0.00,WSDL version 420,2013-07-19 04:44:00,
2013-07-19 00:49:00,67.9,67.9,29.88,WSW,239,0.2,2.0,100,0.00,,,0.00,WSDL version 420,2013-07-19 04:49:00,
2013-07-19 00:54:00,67.8,67.8,29.88,WSW,248,0.4,2.0,100,0.00,,,0.00,WSDL version 420,2013-07-19 04:54:00,
2013-07-19 00:59:00,67.8,67.8,29.88,WSW,248,0.0,1.6,100,0.00,,,0.00,WSDL version 420,2013-07-19 04:59:00,
2013-07-19 01:04:00,67.8,67.8,29.88,WSW,248,1.1,2.5,100,0.00,,,0.00,WSDL version 420,2013-07-19 05:04:00,
2013-07-19 01:09:00,67.8,67.8,29.88,WSW,248,0.0,2.5,100,0.00,,,0.00,WSDL version 420,2013-07-19 05:09:00,
2013-07-19 01:14:00,67.8,67.8,29.88,SW,225,0.0,1.3,100,0.00,,,0.00,WSDL version 420,2013-07-19 05:14:00,
2013-07-19 01:19:00,67.7,67.7,29.85,SW,225,0.0,1.1,100,0.00,,,0.00,WSDL version 420,2013-07-19 05:19:00,
2013-07-19 01:24:00,67.6,67.6,29.85,WSW,248,0.8,2.0,100,0.00,,,0.00,WSDL version 420,2013-07-19 05:24:00,
2013-07-19 01:29:00,67.6,67.6,29.85,SW,225,0.3,2.0,100,0.00,,,0.00,WSDL version 420,2013-07-19 05:29:00,
2013-07-19 01:34:00,67.6,67.6,29.85,SW,225,0.0,1.6,100,0.00,,,0.00,WSDL version 420,2013-07-19 05:34:00,
2013-07-19 01:39:00,67.6,67.6,29.85,WSW,256,0.0,1.3,100,0.00,,,0.00,WSDL version 420,2013-07-19 05:39:00,
2013-07-19 01:44:00,67.6,67.6,29.85,WSW,244,0.7,1.6,100,-99.99,,,-99.99,WSDL version 420,2013-07-19 05:44:00,
2013-07-19 01:49:00,67.8,67.8,29.85,WSW,241,1.6,3.4,100,0.00,,,0.00,WSDL version 420,2013-07-19 05:49:00,
2013-07-19 01:54:00,67.9,67.9,29.85,WSW,238,2.0,4.3,100,0.00,,,0.00,WSDL version 420,2013-07-19 05:54:00,
2013-07-19 01:59:00,67.9,67.9,29.85,SSW,208,0.3,4.3,100,0.00,,,0.00,WSDL version 420,2013-07-19 05:59:00,
2013-07-19 02:04:00,68.0,68.0,29.85,East,94,0.8,2.9,100,0.00,,,0.00,WSDL version 420,2013-07-19 06:04:00,
2013-07-19 02:09:00,68.0,68.0,29.85,South,169,0.0,2.2,100,0.00,,,0.00,WSDL version 420,2013-07-19 06:09:00,
2013-07-19 02:14:00,68.0,68.0,29.85,East,90,0.0,0.0,100,0.00,,,0.00,WSDL version 420,2013-07-19 06:14:00,
2013-07-19 02:19:00,67.9,67.9,29.85,East,90,0.0,0.0,100,0.00,,,0.00,WSDL version 420,2013-07-19 06:19:00,
2013-07-19 02:24:00,67.8,67.8,29.85,East,90,0.0,0.0,100,0.00,,,0.00,WSDL version 420,2013-07-19 06:24:00,
2013-07-19 02:29:00,67.8,67.8,29.85,East,90,0.0,0.0,100,0.00,,,0.00,WSDL version 420,2013-07-19 06:29:00,
2013-07-19 02:34:00,67.8,67.8,29.85,WSW,248,1.0,2.0,100,-99.99,,,-99.99,WSDL version 420,2013-07-19 06:34:00,
2013-07-19 02:39:00,67.6,67.6,29.85,SSW,211,0.4,2.0,100,-99.99,,,-99.99,WSDL version 420,2013-07-19 06:39:00,
2013-07-19 02:45:00,67.6,67.6,29.85,North,357,1.0,2.2,100,-99.99,,,-99.99,WSDL version 420,2013-07-19 06:45:00,
2013-07-19 02:50:00,67.8,67.8,29.85,SSE,151,2.2,3.4,100,0.00,,,0.00,WSDL version 420,2013-07-19 06:50:00,
2013-07-19 02:55:00,68.0,68.0,29.85,SSE,158,0.0,3.4,100,0.00,,,0.00,WSDL version 420,2013-07-19 06:55:00,
2013-07-19 03:00:00,68.0,68.0,29.85,East,84,0.6,2.5,100,0.00,,,0.00,WSDL version 420,2013-07-19 07:00:00,
2013-07-19 03:05:00,68.0,68.0,29.85,SSE,158,2.5,4.3,100,-99.99,,,-99.99,WSDL version 420,2013-07-19 07:05:00,
2013-07-19 03:10:00,68.0,68.0,29.85,East,90,0.5,4.3,100,0.00,,,0.00,WSDL version 420,2013-07-19 07:10:00,
2013-07-19 03:15:00,68.0,68.0,29.85,East,90,1.4,2.7,100,0.00,,,0.00,WSDL version 420,2013-07-19 07:15:00,
2013-07-19 03:20:00,68.0,68.0,29.85,ENE,60,1.6,3.4,100,-99.99,,,-99.99,WSDL version 420,2013-07-19 07:20:00,
2013-07-19 03:25:00,68.0,68.0,29.85,East,90,1.8,3.4,100,0.00,,,0.00,WSDL version 420,2013-07-19 07:25:00,
2013-07-19 03:30:00,68.0,68.0,29.85,East,90,1.1,2.7,100,0.00,,,0.00,WSDL version 420,2013-07-19 07:30:00,
2013-07-19 03:35:00,68.0,68.0,29.83,ESE,107,0.6,2.7,100,-99.99,,,-99.99,WSDL version 420,2013-07-19 07:35:00,
2013-07-19 03:40:00,68.0,68.0,29.83,East,90,0.0,1.3,100,0.00,,,0.00,WSDL version 420,2013-07-19 07:40:00,
2013-07-19 03:45:00,68.0,68.0,29.83,ENE,74,1.5,2.9,100,0.00,,,0.00,WSDL version 420,2013-07-19 07:45:00,
2013-07-19 03:50:00,68.0,68.0,29.83,SSE,164,0.3,2.9,100,0.00,,,0.00,WSDL version 420,2013-07-19 07:50:00,
2013-07-19 03:55:00,68.0,68.0,29.83,ESE,120,1.7,3.1,100,0.00,,,0.00,WSDL version 420,2013-07-19 07:55:00,
2013-07-19 04:00:00,68.0,68.0,29.83,South,170,2.3,4.3,100,0.00,,,0.00,WSDL version 420,2013-07-19 08:00:00,
2013-07-19 04:05:00,68.0,68.0,29.80,ESE,113,1.2,4.3,100,0.00,,,0.00,WSDL version 420,2013-07-19 08:05:00,
2013-07-19 04:10:00,68.2,68.2,29.80,ESE,113,0.8,3.8,100,0.00,,,0.00,WSDL version 420,2013-07-19 08:10:00,
2013-07-19 04:15:00,68.2,68.2,29.80,East,90,1.3,4.9,100,0.00,,,0.00,WSDL version 420,2013-07-19 08:15:00,
2013-07-19 04:20:00,68.2,68.2,29.80,East,87,0.5,4.9,100,0.00,,,0.00,WSDL version 420,2013-07-19 08:20:00,
2013-07-19 04:25:00,68.1,68.1,29.80,SW,225,0.0,2.0,100,0.00,,,0.00,WSDL version 420,2013-07-19 08:25:00,
2013-07-19 04:30:00,68.0,68.0,29.80,East,90,0.0,1.6,100,-99.99,,,-99.99,WSDL version 420,2013-07-19 08:30:00,
2013-07-19 04:35:00,67.8,67.8,29.80,SSW,208,0.6,2.2,100,0.00,,,0.00,WSDL version 420,2013-07-19 08:35:00,
2013-07-19 04:40:00,67.8,67.8,29.80,WSW,248,1.4,4.3,100,0.00,,,0.00,WSDL version 420,2013-07-19 08:40:00,
2013-07-19 04:48:00,68.0,68.0,29.80,SW,225,2.1,5.4,100,-99.99,,,-99.99,WSDL version 420,2013-07-19 08:48:00,
2013-07-19 04:53:00,68.1,68.1,29.80,SSE,158,2.4,5.4,100,0.00,,,0.00,WSDL version 420,2013-07-19 08:53:00,
2013-07-19 04:58:00,68.2,68.2,29.80,NW,311,1.0,4.0,100,0.00,,,0.00,WSDL version 420,2013-07-19 08:58:00,
2013-07-19 05:03:00,68.2,68.2,29.80,South,190,1.3,2.9,100,0.00,,,0.00,WSDL version 420,2013-07-19 09:03:00,
2013-07-19 05:08:00,68.4,68.4,29.80,NE,50,2.0,5.6,100,-99.99,,,-99.99,WSDL version 420,2013-07-19 09:08:00,
2013-07-19 05:13:00,68.4,68.4,29.80,SE,141,2.9,5.6,100,0.00,,,0.00,WSDL version 420,2013-07-19 09:13:00,
2013-07-19 05:18:00,68.4,68.4,29.80,ESE,106,3.5,5.6,100,0.00,,,0.00,WSDL version 420,2013-07-19 09:18:00,
2013-07-19 05:23:00,68.4,68.4,29.80,East,101,2.4,5.6,100,0.00,,,0.00,WSDL version 420,2013-07-19 09:23:00,
2013-07-19 05:28:00,68.4,68.4,29.80,SSE,158,3.7,7.6,100,0.00,,,0.00,WSDL version 420,2013-07-19 09:28:00,
2013-07-19 05:33:00,68.4,68.4,29.80,SSE,158,3.4,7.6,100,0.00,,,0.00,WSDL version 420,2013-07-19 09:33:00,
2013-07-19 05:38:00,68.4,68.4,29.80,SW,231,2.2,5.6,100,0.00,,,0.00,WSDL version 420,2013-07-19 09:38:00,
2013-07-19 05:48:00,68.5,68.5,29.83,SE,129,2.9,8.1,100,0.00,,,0.00,WSDL version 420,2013-07-19 09:48:00,
2013-07-19 05:53:00,68.5,68.5,29.83,East,100,5.2,8.5,100,0.00,,,0.00,WSDL version 420,2013-07-19 09:53:00,
2013-07-19 05:58:00,68.6,68.6,29.83,East,100,2.7,8.5,100,0.00,,,0.00,WSDL version 420,2013-07-19 09:58:00,
2013-07-19 06:03:00,68.6,68.6,29.80,East,90,3.5,6.5,100,-99.99,,,-99.99,WSDL version 420,2013-07-19 10:03:00,
2013-07-19 06:08:00,68.7,68.7,29.80,East,93,4.6,8.1,100,0.00,,,0.00,WSDL version 420,2013-07-19 10:08:00,
2013-07-19 06:13:00,68.7,68.7,29.80,ESE,107,2.7,8.1,100,0.00,,,0.00,WSDL version 420,2013-07-19 10:13:00,
2013-07-19 06:18:00,68.7,68.7,29.80,SSE,167,3.5,8.5,100,0.00,,,0.00,WSDL version 420,2013-07-19 10:18:00,
2013-07-19 06:23:00,68.9,68.9,29.80,East,101,4.3,8.5,100,0.00,,,0.00,WSDL version 420,2013-07-19 10:23:00,
2013-07-19 06:28:00,68.9,68.9,29.80,SE,135,3.1,6.0,100,0.00,,,0.00,WSDL version 420,2013-07-19 10:28:00,
2013-07-19 06:33:00,69.1,69.1,29.83,South,169,1.8,2.7,100,0.00,,,0.00,WSDL version 420,2013-07-19 10:33:00,
2013-07-19 06:38:00,69.3,69.3,29.83,SSW,203,1.6,2.7,100,0.00,,,0.00,WSDL version 420,2013-07-19 10:38:00,
2013-07-19 06:43:00,69.3,69.3,29.83,ENE,68,2.7,3.4,100,0.00,,,0.00,WSDL version 420,2013-07-19 10:43:00,
2013-07-19 06:48:00,69.4,69.4,29.83,SE,135,2.3,4.9,100,0.00,,,0.00,WSDL version 420,2013-07-19 10:48:00,
2013-07-19 06:53:00,69.4,69.4,29.83,SE,146,2.7,4.9,100,0.00,,,0.00,WSDL version 420,2013-07-19 10:53:00,
2013-07-19 06:58:00,69.4,69.4,29.83,South,180,3.1,5.6,100,0.00,,,0.00,WSDL version 420,2013-07-19 10:58:00,
2013-07-19 07:03:00,69.4,69.4,29.80,SSW,203,2.7,5.6,100,0.00,,,0.00,WSDL version 420,2013-07-19 11:03:00,
2013-07-19 07:08:00,69.6,69.6,29.80,SSW,203,2.7,3.8,100,0.00,,,0.00,WSDL version 420,2013-07-19 11:08:00,
2013-07-19 07:13:00,69.6,69.6,29.80,South,191,3.4,5.8,100,0.00,,,0.00,WSDL version 420,2013-07-19 11:13:00,
2013-07-19 07:18:00,69.8,69.8,29.77,SSE,150,3.6,5.8,100,0.00,,,0.00,WSDL version 420,2013-07-19 11:18:00,
2013-07-19 07:23:00,69.8,69.8,29.77,SSW,203,3.3,4.3,100,0.00,,,0.00,WSDL version 420,2013-07-19 11:23:00,
2013-07-19 07:28:00,70.0,70.0,29.77,East,101,3.0,8.7,100,0.00,,,0.00,WSDL version 420,2013-07-19 11:28:00,
2013-07-19 07:33:00,70.2,70.2,29.77,SW,233,3.0,8.7,100,0.00,,,0.00,WSDL version 420,2013-07-19 11:33:00,
2013-07-19 07:38:00,70.4,70.4,29.77,ESE,110,3.9,7.6,100,0.00,,,0.00,WSDL version 420,2013-07-19 11:38:00,
2013-07-19 07:43:00,70.7,70.7,29.77,South,180,4.6,7.6,100,0.00,,,0.00,WSDL version 420,2013-07-19 11:43:00,
2013-07-19 07:48:00,70.8,70.8,29.80,SW,225,3.4,7.2,100,0.00,,,0.00,WSDL version 420,2013-07-19 11:48:00,
2013-07-19 07:53:00,70.9,70.9,29.80,East,86,2.6,5.6,100,0.00,,,0.00,WSDL version 420,2013-07-19 11:53:00,
2013-07-19 07:58:00,71.0,71.0,29.80,SSE,148,3.4,5.6,100,0.00,,,0.00,WSDL version 420,2013-07-19 11:58:00,
2013-07-19 08:03:00,71.2,71.1,29.80,SW,225,3.6,5.6,100,0.00,,,0.00,WSDL version 420,2013-07-19 12:03:00,
2013-07-19 08:08:00,71.4,71.4,29.80,SE,135,4.1,6.0,100,0.00,,,0.00,WSDL version 420,2013-07-19 12:08:00,
2013-07-19 08:13:00,71.6,71.6,29.80,ESE,122,5.7,8.1,100,0.00,,,0.00,WSDL version 420,2013-07-19 12:13:00,
2013-07-19 08:18:00,71.7,71.6,29.80,SE,146,4.7,8.1,99,0.00,,,0.00,WSDL version 420,2013-07-19 12:18:00,
2013-07-19 08:23:00,72.0,71.6,29.80,South,180,3.0,6.5,99,0.00,,,0.00,WSDL version 420,2013-07-19 12:23:00,
2013-07-19 08:28:00,72.3,72.0,29.80,SE,131,5.0,7.6,99,0.00,,,0.00,WSDL version 420,2013-07-19 12:28:00,
2013-07-19 08:33:00,72.9,72.2,29.80,ESE,113,4.1,10.7,98,0.00,,,0.00,WSDL version 420,2013-07-19 12:33:00,
2013-07-19 08:38:00,73.3,72.4,29.80,ESE,116,5.1,10.7,97,0.00,,,0.00,WSDL version 420,2013-07-19 12:38:00,
2013-07-19 08:49:00,73.4,71.7,29.80,SE,135,5.3,10.3,94,-99.99,,,-99.99,WSDL version 420,2013-07-19 12:49:00,
2013-07-19 08:54:00,73.6,71.8,29.80,SE,127,5.1,8.1,93,0.00,,,0.00,WSDL version 420,2013-07-19 12:54:00,
2013-07-19 08:59:00,73.6,71.5,29.80,SE,144,4.7,9.8,93,0.00,,,0.00,WSDL version 420,2013-07-19 12:59:00,
2013-07-19 09:04:00,73.6,71.5,29.80,ESE,107,5.2,11.4,93,0.00,,,0.00,WSDL version 420,2013-07-19 13:04:00,
2013-07-19 09:09:00,73.8,71.8,29.80,NNE,23,6.2,11.4,93,0.00,,,0.00,WSDL version 420,2013-07-19 13:09:00,
2013-07-19 09:14:00,74.1,72.1,29.80,SE,132,6.0,12.5,93,-99.99,,,-99.99,WSDL version 420,2013-07-19 13:14:00,
2013-07-19 09:19:00,74.5,72.4,29.77,ESE,116,5.8,12.5,92,0.00,,,0.00,WSDL version 420,2013-07-19 13:19:00,
2013-07-19 09:24:00,74.9,72.5,29.77,ESE,120,5.9,11.0,92,0.00,,,0.00,WSDL version 420,2013-07-19 13:24:00,
2013-07-19 09:29:00,74.8,72.1,29.77,NNE,19,3.9,12.3,91,0.00,,,0.00,WSDL version 420,2013-07-19 13:29:00,
2013-07-19 09:34:00,75.1,72.3,29.77,SE,129,5.0,12.3,91,-99.99,,,-99.99,WSDL version 420,2013-07-19 13:34:00,
2013-07-19 09:39:00,75.7,72.9,29.77,ESE,109,7.6,10.5,91,0.00,,,0.00,WSDL version 420,2013-07-19 13:39:00,
2013-07-19 09:44:00,76.1,73.2,29.77,East,98,4.0,11.4,91,0.00,,,0.00,WSDL version 420,2013-07-19 13:44:00,
2013-07-19 09:49:00,76.7,73.3,29.77,SE,138,6.4,11.4,89,0.00,,,0.00,WSDL version 420,2013-07-19 13:49:00,
2013-07-19 09:54:00,77.1,73.2,29.77,East,96,5.9,10.7,88,0.00,,,0.00,WSDL version 420,2013-07-19 13:54:00,
2013-07-19 09:59:00,77.6,73.7,29.77,ESE,118,5.0,8.7,88,0.00,,,0.00,WSDL version 420,2013-07-19 13:59:00,
2013-07-19 10:04:00,78.0,73.4,29.77,SE,145,7.1,14.5,84,0.00,,,0.00,WSDL version 420,2013-07-19 14:04:00,
2013-07-19 10:09:00,78.2,73.1,29.77,East,80,5.5,14.5,84,0.00,,,0.00,WSDL version 420,2013-07-19 14:09:00,
2013-07-19 10:14:00,78.6,73.0,29.77,East,93,6.7,10.7,82,0.00,,,0.00,WSDL version 420,2013-07-19 14:14:00,
2013-07-19 10:19:00,78.9,72.6,29.74,SE,124,4.8,12.1,81,0.00,,,0.00,WSDL version 420,2013-07-19 14:19:00,
2013-07-19 10:24:00,79.0,72.0,29.74,ESE,103,6.5,12.1,79,0.00,,,0.00,WSDL version 420,2013-07-19 14:24:00,
2013-07-19 10:29:00,79.0,72.0,29.74,SSW,199,4.6,10.5,78,0.00,,,0.00,WSDL version 420,2013-07-19 14:29:00,
2013-07-19 10:34:00,79.3,72.4,29.74,ESE,107,7.0,13.0,79,0.00,,,0.00,WSDL version 420,2013-07-19 14:34:00,
2013-07-19 10:39:00,79.5,72.1,29.74,ESE,113,5.9,14.3,78,0.00,,,0.00,WSDL version 420,2013-07-19 14:39:00,
2013-07-19 10:44:00,79.6,72.0,29.74,South,185,6.3,14.3,77,0.00,,,0.00,WSDL version 420,2013-07-19 14:44:00,
2013-07-19 10:49:00,79.8,72.4,29.74,SE,135,7.4,14.8,78,0.00,,,0.00,WSDL version 420,2013-07-19 14:49:00,
2013-07-19 10:54:00,80.2,72.8,29.74,ESE,119,5.8,14.8,78,0.00,,,0.00,WSDL version 420,2013-07-19 14:54:00,
2013-07-19 10:59:00,80.3,72.7,29.74,East,79,5.8,13.2,78,-99.99,,,-99.99,WSDL version 420,2013-07-19 14:59:00,
2013-07-19 11:04:00,80.5,72.9,29.71,ESE,121,5.5,13.6,78,0.00,,,0.00,WSDL version 420,2013-07-19 15:04:00,
2013-07-19 11:09:00,80.7,72.7,29.71,SSE,150,3.9,13.6,77,0.00,,,0.00,WSDL version 420,2013-07-19 15:09:00,
2013-07-19 11:14:00,80.7,72.7,29.71,South,186,5.3,10.3,76,0.00,,,0.00,WSDL version 420,2013-07-19 15:14:00,
2013-07-19 11:19:00,80.9,72.4,29.74,ESE,107,7.9,12.8,75,-99.99,,,-99.99,WSDL version 420,2013-07-19 15:19:00,
2013-07-19 11:24:00,81.1,73.2,29.74,ESE,113,4.2,12.8,78,0.00,,,0.00,WSDL version 420,2013-07-19 15:24:00,
2013-07-19 11:29:00,81.4,73.3,29.74,ESE,109,5.6,10.1,75,0.00,,,0.00,WSDL version 420,2013-07-19 15:29:00,
2013-07-19 11:34:00,81.6,73.0,29.74,South,190,5.3,10.1,75,0.00,,,0.00,WSDL version 420,2013-07-19 15:34:00,
2013-07-19 11:39:00,81.9,73.5,29.74,NE,54,6.0,8.5,75,0.00,,,0.00,WSDL version 420,2013-07-19 15:39:00,
2013-07-19 11:44:00,82.2,73.0,29.74,South,180,7.2,13.2,75,0.00,,,0.00,WSDL version 420,2013-07-19 15:44:00,
2013-07-19 11:49:00,82.5,72.9,29.74,SSE,148,5.8,13.2,72,0.00,,,0.00,WSDL version 420,2013-07-19 15:49:00,
2013-07-19 11:54:00,82.5,72.5,29.74,East,90,7.2,12.1,70,0.00,,,0.00,WSDL version 420,2013-07-19 15:54:00,
2013-07-19 12:04:00,82.7,72.6,29.71,SE,129,6.6,12.3,72,0.00,,,0.00,WSDL version 420,2013-07-19 16:04:00,
2013-07-19 12:09:00,82.8,72.8,29.71,East,83,5.1,12.3,72,0.00,,,0.00,WSDL version 420,2013-07-19 16:09:00,
2013-07-19 12:14:00,82.4,72.1,29.71,South,186,5.9,12.5,71,0.00,,,0.00,WSDL version 420,2013-07-19 16:14:00,
2013-07-19 12:19:00,82.0,71.8,29.71,SE,135,6.8,12.5,71,0.00,,,0.00,WSDL version 420,2013-07-19 16:19:00,
2013-07-19 12:24:00,82.3,71.1,29.71,East,87,6.1,13.2,70,0.00,,,0.00,WSDL version 420,2013-07-19 16:24:00,
2013-07-19 12:29:00,82.8,71.1,29.71,North,11,4.5,13.2,67,-99.99,,,-99.99,WSDL version 420,2013-07-19 16:29:00,
2013-07-19 12:34:00,83.3,69.6,29.71,East,95,8.7,15.4,63,0.00,,,0.00,WSDL version 420,2013-07-19 16:34:00,
2013-07-19 12:39:00,83.5,69.1,29.71,ESE,113,8.9,15.4,61,0.00,,,0.00,WSDL version 420,2013-07-19 16:39:00,
2013-07-19 12:44:00,83.5,69.1,29.71,ENE,73,6.0,14.5,63,0.00,,,0.00,WSDL version 420,2013-07-19 16:44:00,
2013-07-19 12:49:00,83.5,68.5,29.68,ESE,116,9.4,15.2,60,0.00,,,0.00,WSDL version 420,2013-07-19 16:49:00,
2013-07-19 12:54:00,83.6,68.0,29.68,ESE,103,5.8,15.2,58,0.00,,,0.00,WSDL version 420,2013-07-19 16:54:00,
2013-07-19 12:59:00,83.9,68.1,29.68,East,87,8.3,12.8,60,0.00,,,0.00,WSDL version 420,2013-07-19 16:59:00,
2013-07-19 13:04:00,84.3,68.2,29.68,ESE,118,7.5,17.4,58,0.00,,,0.00,WSDL version 420,2013-07-19 17:04:00,
2013-07-19 13:09:00,84.6,68.3,29.68,SSE,162,6.2,17.4,59,0.00,,,0.00,WSDL version 420,2013-07-19 17:09:00,
2013-07-19 13:14:00,84.7,68.6,29.68,SE,145,6.4,12.8,59,0.00,,,0.00,WSDL version 420,2013-07-19 17:14:00,
2013-07-19 13:19:00,84.7,68.0,29.68,SE,139,5.7,12.8,57,0.00,,,0.00,WSDL version 420,2013-07-19 17:19:00,
2013-07-19 13:24:00,84.6,68.7,29.68,East,80,4.6,9.8,59,0.00,,,0.00,WSDL version 420,2013-07-19 17:24:00,
2013-07-19 13:29:00,84.7,68.5,29.68,SE,124,4.8,14.5,58,0.00,,,0.00,WSDL version 420,2013-07-19 17:29:00,
2013-07-19 13:34:00,84.9,69.5,29.68,SE,135,4.9,17.4,60,0.00,,,0.00,WSDL version 420,2013-07-19 17:34:00,
2013-07-19 13:39:00,85.3,69.1,29.68,NE,41,4.6,17.4,59,-99.99,,,-99.99,WSDL version 420,2013-07-19 17:39:00,
2013-07-19 13:44:00,85.6,67.8,29.68,ESE,113,7.4,13.2,55,0.00,,,0.00,WSDL version 420,2013-07-19 17:44:00,
2013-07-19 13:49:00,85.8,68.7,29.68,East,90,6.4,13.2,56,0.00,,,0.00,WSDL version 420,2013-07-19 17:49:00,
2013-07-19 13:54:00,85.7,67.8,29.68,SE,143,4.7,12.8,57,0.00,,,0.00,WSDL version 420,2013-07-19 17:54:00,
2013-07-19 13:59:00,86.0,67.8,29.68,East,96,8.1,14.5,55,0.00,,,0.00,WSDL version 420,2013-07-19 17:59:00,
2013-07-19 14:04:00,86.4,68.7,29.65,ENE,64,4.8,15.4,56,0.00,,,0.00,WSDL version 420,2013-07-19 18:04:00,
2013-07-19 14:09:00,86.7,67.4,29.65,East,99,8.8,15.4,51,0.00,,,0.00,WSDL version 420,2013-07-19 18:09:00,
2013-07-19 14:14:00,86.2,66.5,29.65,NE,55,5.1,13.2,53,0.00,,,0.00,WSDL version 420,2013-07-19 18:14:00,
2013-07-19 14:19:00,86.0,65.8,29.68,East,96,5.6,12.3,51,0.00,,,0.00,WSDL version 420,2013-07-19 18:19:00,
2013-07-19 14:24:00,86.1,66.1,29.68,SSE,151,4.4,12.3,51,0.00,,,0.00,WSDL version 420,2013-07-19 18:24:00,
2013-07-19 14:29:00,86.0,65.4,29.68,North,360,3.5,10.5,53,0.00,,,0.00,WSDL version 420,2013-07-19 18:29:00,
2013-07-19 14:34:00,86.0,64.9,29.65,ESE,106,5.9,12.3,49,0.00,,,0.00,WSDL version 420,2013-07-19 18:34:00,
2013-07-19 14:39:00,86.0,65.8,29.65,South,177,7.4,12.3,52,0.00,,,0.00,WSDL version 420,2013-07-19 18:39:00,
2013-07-19 14:44:00,86.3,66.6,29.65,SE,138,7.9,10.7,52,0.00,,,0.00,WSDL version 420,2013-07-19 18:44:00,
2013-07-19 14:49:00,86.6,66.0,29.65,East,90,7.1,14.5,51,0.00,,,0.00,WSDL version 420,2013-07-19 18:49:00,
2013-07-19 14:54:00,86.5,65.9,29.65,SSE,162,8.3,14.5,49,-99.99,,,-99.99,WSDL version 420,2013-07-19 18:54:00,
2013-07-19 14:59:00,86.2,65.6,29.65,East,90,7.2,13.6,51,0.00,,,0.00,WSDL version 420,2013-07-19 18:59:00,
2013-07-19 15:04:00,86.0,67.2,29.65,SE,125,4.9,12.1,53,0.00,,,0.00,WSDL version 420,2013-07-19 19:04:00,
2013-07-19 15:09:00,86.0,66.7,29.65,SE,129,4.5,12.1,52,0.00,,,0.00,WSDL version 420,2013-07-19 19:09:00,
2013-07-19 15:14:00,86.0,66.3,29.65,ESE,116,6.3,11.0,52,0.00,,,0.00,WSDL version 420,2013-07-19 19:14:00,
2013-07-19 15:19:00,85.8,65.9,29.62,SSE,160,6.5,11.0,52,0.00,,,0.00,WSDL version 420,2013-07-19 19:19:00,
2013-07-19 15:24:00,85.5,66.6,29.62,WSW,240,4.4,10.5,54,-99.99,,,-99.99,WSDL version 420,2013-07-19 19:24:00,
2013-07-19 15:29:00,85.5,66.8,29.62,South,180,8.7,13.0,52,0.00,,,0.00,WSDL version 420,2013-07-19 19:29:00,
2013-07-19 15:34:00,85.6,67.4,29.62,NE,56,4.3,13.0,55,0.00,,,0.00,WSDL version 420,2013-07-19 19:34:00,
2013-07-19 15:39:00,85.9,68.0,29.62,NNE,28,4.1,10.1,56,0.00,,,0.00,WSDL version 420,2013-07-19 19:39:00,
2013-07-19 15:44:00,86.5,67.7,29.62,ESE,121,8.8,13.0,52,0.00,,,0.00,WSDL version 420,2013-07-19 19:44:00,
2013-07-19 15:49:00,86.5,66.7,29.62,ENE,64,4.8,13.0,53,0.00,,,0.00,WSDL version 420,2013-07-19 19:49:00,
2013-07-19 15:54:00,86.2,66.6,29.62,SE,132,3.9,12.3,53,0.00,,,0.00,WSDL version 420,2013-07-19 19:54:00,
2013-07-19 15:59:00,86.3,67.2,29.62,ESE,120,5.5,12.3,52,0.00,,,0.00,WSDL version 420,2013-07-19 19:59:00,
2013-07-19 16:04:00,86.2,66.6,29.62,ESE,104,7.9,10.7,53,0.00,,,0.00,WSDL version 420,2013-07-19 20:04:00,
2013-07-19 16:09:00,86.0,66.4,29.62,East,98,6.4,10.7,53,0.00,,,0.00,WSDL version 420,2013-07-19 20:09:00,
2013-07-19 16:14:00,86.2,66.9,29.62,ESE,113,6.7,11.0,52,0.00,,,0.00,WSDL version 420,2013-07-19 20:14:00,
2013-07-19 16:19:00,86.1,66.9,29.62,East,101,6.2,12.8,53,0.00,,,0.00,WSDL version 420,2013-07-19 20:19:00,
2013-07-19 16:24:00,86.4,68.0,29.62,SE,135,7.0,12.8,54,0.00,,,0.00,WSDL version 420,2013-07-19 20:24:00,
2013-07-19 16:29:00,86.4,67.8,29.62,ESE,105,4.4,13.0,54,0.00,,,0.00,WSDL version 420,2013-07-19 20:29:00,
2013-07-19 16:34:00,86.2,67.3,29.62,ENE,61,6.7,13.0,54,0.00,,,0.00,WSDL version 420,2013-07-19 20:34:00,
2013-07-19 16:39:00,86.5,67.6,29.62,East,90,6.9,12.8,53,0.00,,,0.00,WSDL version 420,2013-07-19 20:39:00,
2013-07-19 16:44:00,86.5,67.1,29.62,SSE,149,6.5,12.3,52,0.00,,,0.00,WSDL version 420,2013-07-19 20:44:00,
2013-07-19 16:49:00,86.2,68.2,29.59,ESE,117,2.8,10.1,55,0.00,,,0.00,WSDL version 420,2013-07-19 20:49:00,
2013-07-19 16:54:00,86.5,68.3,29.59,East,93,6.6,13.4,54,0.00,,,0.00,WSDL version 420,2013-07-19 20:54:00,
2013-07-19 16:59:00,86.8,67.4,29.59,ESE,106,9.0,13.4,53,0.00,,,0.00,WSDL version 420,2013-07-19 20:59:00,
2013-07-19 17:04:00,86.6,66.6,29.62,ESE,104,6.7,15.4,51,0.00,,,0.00,WSDL version 420,2013-07-19 21:04:00,
2013-07-19 17:09:00,86.2,66.5,29.62,South,174,7.0,15.4,53,0.00,,,0.00,WSDL version 420,2013-07-19 21:09:00,
2013-07-19 17:14:00,86.3,67.0,29.62,SE,143,7.6,13.2,52,0.00,,,0.00,WSDL version 420,2013-07-19 21:14:00,
2013-07-19 17:19:00,86.2,66.8,29.62,ESE,113,5.3,13.2,52,0.00,,,0.00,WSDL version 420,2013-07-19 21:19:00,
2013-07-19 17:28:00,85.8,67.8,29.62,East,96,7.4,12.3,55,0.00,,,0.00,WSDL version 420,2013-07-19 21:28:00,
2013-07-19 17:34:00,85.8,67.4,29.62,ESE,104,7.2,13.0,55,0.00,,,0.00,WSDL version 420,2013-07-19 21:34:00,
2013-07-19 17:38:00,85.8,67.5,29.62,South,169,6.9,13.0,55,0.00,,,0.00,WSDL version 420,2013-07-19 21:38:00,
2013-07-19 17:44:00,85.9,67.5,29.62,SSE,158,5.4,11.0,54,0.00,,,0.00,WSDL version 420,2013-07-19 21:44:00,
2013-07-19 17:48:00,85.8,67.8,29.62,ESE,113,7.7,15.4,55,0.00,,,0.00,WSDL version 420,2013-07-19 21:48:00,
2013-07-19 17:54:00,85.6,67.9,29.62,East,98,7.4,15.4,56,0.00,,,0.00,WSDL version 420,2013-07-19 21:54:00,
2013-07-19 17:59:00,85.5,67.5,29.62,SE,143,8.6,12.5,55,0.00,,,0.00,WSDL version 420,2013-07-19 21:59:00,
2013-07-19 18:04:00,85.5,67.6,29.62,East,100,5.8,12.1,56,0.00,,,0.00,WSDL version 420,2013-07-19 22:04:00,
2013-07-19 18:09:00,85.5,67.6,29.62,SE,132,9.2,14.8,55,0.00,,,0.00,WSDL version 420,2013-07-19 22:09:00,
2013-07-19 18:14:00,85.3,68.0,29.62,ESE,116,6.0,14.8,56,0.00,,,0.00,WSDL version 420,2013-07-19 22:14:00,
2013-07-19 18:19:00,85.0,67.8,29.62,ESE,116,3.7,11.4,56,0.00,,,0.00,WSDL version 420,2013-07-19 22:19:00,
2013-07-19 18:49:00,83.5,67.7,29.62,SE,129,4.7,10.7,59,-99.99,,,-99.99,WSDL version 420,2013-07-19 22:49:00,
2013-07-19 19:18:00,81.1,68.2,29.62,ESE,108,7.0,12.3,64,0.00,,,0.00,WSDL version 420,2013-07-19 23:18:00,
2013-07-19 19:48:00,76.7,69.2,29.62,SSE,158,1.0,6.3,78,0.00,,,0.00,WSDL version 420,2013-07-19 23:48:00,
2013-07-19 20:19:00,79.4,68.4,29.65,East,93,3.7,12.3,69,0.00,,,0.00,WSDL version 420,2013-07-20 00:19:00,
2013-07-19 21:55:00,67.3,66.6,29.68,SE,128,2.5,5.4,98,0.04,,,0.16,WSDL version 420,2013-07-20 01:55:00,
2013-07-19 22:25:00,67.3,67.0,29.68,SSW,198,0.9,3.1,99,0.04,,,0.16,WSDL version 420,2013-07-20 02:25:00,
2013-07-19 22:55:00,66.9,66.6,29.68,NNW,332,1.1,3.8,99,0.00,,,0.16,WSDL version 420,2013-07-20 02:55:00,
2013-07-19 23:25:00,66.0,65.7,29.65,SSW,198,1.3,2.5,99,-99.99,,,-99.99,WSDL version 420,2013-07-20 03:25:00,
2013-07-19 23:55:00,65.8,65.8,29.65,SW,215,0.7,2.7,100,0.00,,,0.16,WSDL version 420,2013-07-20 03:55:00,